sensor_id;sensor_type;location;lat;lon;timestamp;temperature;humidity
5932;DHT22;2991;49.368;8.528;2022-09-09T00:00:16;24.20;99.90
5932;DHT22;2991;49.368;8.528;2022-09-09T00:05:29;24.10;99.90
5932;DHT22;2991;49.368;8.528;2022-09-09T00:07:59;24.10;99.90
5932;DHT22;2991;49.368;8.528;2022-09-09T00:10:58;24.10;99.90
5932;DHT22;2991;49.368;8.528;2022-09-09T00:13:46;24.10;99.90
5932;DHT22;2991;49.368;8.528;2022-09-09T00:16:22;24.10;99.90
5932;DHT22;2991;49.368;8.528;2022-09-09T00:21:38;24.10;99.90
5932;DHT22;2991;49.368;8.528;2022-09-09T00:24:11;24.10;99.90
5932;DHT22;2991;49.368;8.528;2022-09-09T00:26:45;24.10;99.90
5932;DHT22;2991;49.368;8.528;2022-09-09T00:31:38;24.10;99.90
5932;DHT22;2991;49.368;8.528;2022-09-09T00:34:21;24.10;99.90
5932;DHT22;2991;49.368;8.528;2022-09-09T00:36:50;24.10;99.90
5932;DHT22;2991;49.368;8.528;2022-09-09T00:39:40;24.10;99.90
5932;DHT22;2991;49.368;8.528;2022-09-09T00:47:46;24.10;99.90
5932;DHT22;2991;49.368;8.528;2022-09-09T00:50:50;24.10;99.90
5932;DHT22;2991;49.368;8.528;2022-09-09T00:56:12;24.10;99.90
5932;DHT22;2991;49.368;8.528;2022-09-09T00:58:42;24.00;99.90
5932;DHT22;2991;49.368;8.528;2022-09-09T01:01:12;24.10;99.90
5932;DHT22;2991;49.368;8.528;2022-09-09T01:06:35;24.00;99.90
5932;DHT22;2991;49.368;8.528;2022-09-09T01:09:16;24.00;99.90
5932;DHT22;2991;49.368;8.528;2022-09-09T01:22:33;24.00;99.90
5932;DHT22;2991;49.368;8.528;2022-09-09T01:25:25;24.00;99.90
5932;DHT22;2991;49.368;8.528;2022-09-09T01:27:56;24.00;99.90
5932;DHT22;2991;49.368;8.528;2022-09-09T01:30:25;24.00;99.90
5932;DHT22;2991;49.368;8.528;2022-09-09T01:32:57;24.00;99.90
5932;DHT22;2991;49.368;8.528;2022-09-09T01:35:44;23.90;99.90
5932;DHT22;2991;49.368;8.528;2022-09-09T01:38:11;24.00;99.90
5932;DHT22;2991;49.368;8.528;2022-09-09T01:40:38;24.00;99.90
5932;DHT22;2991;49.368;8.528;2022-09-09T01:43:04;23.90;99.90
5932;DHT22;2991;49.368;8.528;2022-09-09T01:45:30;24.00;99.90
5932;DHT22;2991;49.368;8.528;2022-09-09T01:47:56;23.90;99.90
5932;DHT22;2991;49.368;8.528;2022-09-09T01:50:22;24.00;99.90
5932;DHT22;2991;49.368;8.528;2022-09-09T01:52:52;24.00;99.90
5932;DHT22;2991;49.368;8.528;2022-09-09T01:55:33;23.90;99.90
5932;DHT22;2991;49.368;8.528;2022-09-09T01:58:29;23.90;99.90
5932;DHT22;2991;49.368;8.528;2022-09-09T02:03:35;23.90;99.90
5932;DHT22;2991;49.368;8.528;2022-09-09T02:06:20;23.90;99.90
5932;DHT22;2991;49.368;8.528;2022-09-09T02:08:50;23.90;99.90
5932;DHT22;2991;49.368;8.528;2022-09-09T02:11:19;23.90;99.90
5932;DHT22;2991;49.368;8.528;2022-09-09T02:13:49;23.90;99.90
5932;DHT22;2991;49.368;8.528;2022-09-09T02:16:21;23.90;99.90
5932;DHT22;2991;49.368;8.528;2022-09-09T02:18:57;23.90;99.90
5932;DHT22;2991;49.368;8.528;2022-09-09T02:21:28;23.90;99.90
5932;DHT22;2991;49.368;8.528;2022-09-09T02:23:57;23.90;99.90
5932;DHT22;2991;49.368;8.528;2022-09-09T02:26:24;23.90;99.90
5932;DHT22;2991;49.368;8.528;2022-09-09T02:28:51;23.90;99.90
5932;DHT22;2991;49.368;8.528;2022-09-09T02:31:20;23.90;99.90
5932;DHT22;2991;49.368;8.528;2022-09-09T02:33:56;23.90;99.90
5932;DHT22;2991;49.368;8.528;2022-09-09T02:36:24;23.90;99.90
5932;DHT22;2991;49.368;8.528;2022-09-09T02:38:51;23.90;99.90
5932;DHT22;2991;49.368;8.528;2022-09-09T02:41:39;23.90;99.90
5932;DHT22;2991;49.368;8.528;2022-09-09T02:44:16;23.80;99.90
5932;DHT22;2991;49.368;8.528;2022-09-09T02:52:08;23.80;99.90
5932;DHT22;2991;49.368;8.528;2022-09-09T02:54:40;23.80;99.90
5932;DHT22;2991;49.368;8.528;2022-09-09T02:59:37;23.80;99.90
5932;DHT22;2991;49.368;8.528;2022-09-09T03:02:03;23.80;99.90
5932;DHT22;2991;49.368;8.528;2022-09-09T03:04:29;23.80;99.90
5932;DHT22;2991;49.368;8.528;2022-09-09T03:06:56;23.80;99.90
5932;DHT22;2991;49.368;8.528;2022-09-09T03:09:22;23.80;99.90
5932;DHT22;2991;49.368;8.528;2022-09-09T03:11:48;23.80;99.90
5932;DHT22;2991;49.368;8.528;2022-09-09T03:14:15;23.80;99.90
5932;DHT22;2991;49.368;8.528;2022-09-09T03:16:40;23.80;99.90
5932;DHT22;2991;49.368;8.528;2022-09-09T03:19:08;23.80;99.90
5932;DHT22;2991;49.368;8.528;2022-09-09T03:21:33;23.80;99.90
5932;DHT22;2991;49.368;8.528;2022-09-09T03:23:59;23.80;99.90
5932;DHT22;2991;49.368;8.528;2022-09-09T03:26:25;23.80;99.90
5932;DHT22;2991;49.368;8.528;2022-09-09T03:28:50;23.80;99.90
5932;DHT22;2991;49.368;8.528;2022-09-09T03:31:17;23.80;99.90
5932;DHT22;2991;49.368;8.528;2022-09-09T03:33:44;23.80;99.90
5932;DHT22;2991;49.368;8.528;2022-09-09T03:36:10;23.70;99.90
5932;DHT22;2991;49.368;8.528;2022-09-09T03:38:36;23.80;99.90
5932;DHT22;2991;49.368;8.528;2022-09-09T03:41:01;23.80;99.90
5932;DHT22;2991;49.368;8.528;2022-09-09T03:43:28;23.70;99.90
5932;DHT22;2991;49.368;8.528;2022-09-09T03:45:53;23.80;99.90
5932;DHT22;2991;49.368;8.528;2022-09-09T03:48:22;23.70;99.90
5932;DHT22;2991;49.368;8.528;2022-09-09T03:50:52;23.70;99.90
5932;DHT22;2991;49.368;8.528;2022-09-09T03:53:20;23.70;99.90
5932;DHT22;2991;49.368;8.528;2022-09-09T03:55:50;23.70;99.90
5932;DHT22;2991;49.368;8.528;2022-09-09T03:58:20;23.70;99.90
5932;DHT22;2991;49.368;8.528;2022-09-09T04:00:55;23.70;99.90
5932;DHT22;2991;49.368;8.528;2022-09-09T04:03:22;23.70;99.90
5932;DHT22;2991;49.368;8.528;2022-09-09T04:05:49;23.70;99.90
5932;DHT22;2991;49.368;8.528;2022-09-09T04:08:14;23.70;99.90
5932;DHT22;2991;49.368;8.528;2022-09-09T04:10:40;23.70;99.90
5932;DHT22;2991;49.368;8.528;2022-09-09T04:13:06;23.60;99.90
5932;DHT22;2991;49.368;8.528;2022-09-09T04:15:32;23.70;99.90
5932;DHT22;2991;49.368;8.528;2022-09-09T04:17:58;23.70;99.90
5932;DHT22;2991;49.368;8.528;2022-09-09T04:20:23;23.70;99.90
5932;DHT22;2991;49.368;8.528;2022-09-09T04:22:49;23.70;99.90
5932;DHT22;2991;49.368;8.528;2022-09-09T04:25:15;23.60;99.90
5932;DHT22;2991;49.368;8.528;2022-09-09T04:27:40;23.60;99.90
5932;DHT22;2991;49.368;8.528;2022-09-09T04:30:08;23.60;99.90
5932;DHT22;2991;49.368;8.528;2022-09-09T04:32:34;23.60;99.90
5932;DHT22;2991;49.368;8.528;2022-09-09T04:35:01;23.60;99.90
5932;DHT22;2991;49.368;8.528;2022-09-09T04:37:26;23.60;99.90
5932;DHT22;2991;49.368;8.528;2022-09-09T04:39:52;23.60;99.90
5932;DHT22;2991;49.368;8.528;2022-09-09T04:42:17;23.60;99.90
5932;DHT22;2991;49.368;8.528;2022-09-09T04:44:44;23.60;99.90
5932;DHT22;2991;49.368;8.528;2022-09-09T04:47:10;23.60;99.90
5932;DHT22;2991;49.368;8.528;2022-09-09T04:49:36;23.60;99.90
5932;DHT22;2991;49.368;8.528;2022-09-09T04:52:03;23.60;99.90
5932;DHT22;2991;49.368;8.528;2022-09-09T04:54:29;23.60;99.90
5932;DHT22;2991;49.368;8.528;2022-09-09T04:56:54;23.60;99.90
5932;DHT22;2991;49.368;8.528;2022-09-09T04:59:20;23.60;99.90
5932;DHT22;2991;49.368;8.528;2022-09-09T05:02:04;23.60;99.90
5932;DHT22;2991;49.368;8.528;2022-09-09T05:04:41;23.60;99.90
5932;DHT22;2991;49.368;8.528;2022-09-09T05:07:13;23.60;99.90
5932;DHT22;2991;49.368;8.528;2022-09-09T05:09:40;23.60;99.90
5932;DHT22;2991;49.368;8.528;2022-09-09T05:12:05;23.50;99.90
5932;DHT22;2991;49.368;8.528;2022-09-09T05:14:37;23.40;99.90
5932;DHT22;2991;49.368;8.528;2022-09-09T05:18:01;23.20;99.90
5932;DHT22;2991;49.368;8.528;2022-09-09T05:20:58;23.00;99.90
5932;DHT22;2991;49.368;8.528;2022-09-09T05:23:23;22.90;99.90
5932;DHT22;2991;49.368;8.528;2022-09-09T05:25:56;22.80;99.90
5932;DHT22;2991;49.368;8.528;2022-09-09T05:28:22;22.70;99.90
5932;DHT22;2991;49.368;8.528;2022-09-09T05:30:58;22.70;99.90
5932;DHT22;2991;49.368;8.528;2022-09-09T05:33:26;22.60;99.90
5932;DHT22;2991;49.368;8.528;2022-09-09T05:35:59;22.60;99.90
5932;DHT22;2991;49.368;8.528;2022-09-09T05:38:24;22.60;99.90
5932;DHT22;2991;49.368;8.528;2022-09-09T05:40:51;22.60;99.90
5932;DHT22;2991;49.368;8.528;2022-09-09T05:43:18;22.60;99.90
5932;DHT22;2991;49.368;8.528;2022-09-09T05:45:46;22.40;99.90
5932;DHT22;2991;49.368;8.528;2022-09-09T05:48:13;22.40;99.90
5932;DHT22;2991;49.368;8.528;2022-09-09T05:50:40;22.30;99.90
5932;DHT22;2991;49.368;8.528;2022-09-09T05:53:06;22.40;99.90
5932;DHT22;2991;49.368;8.528;2022-09-09T05:55:31;22.30;99.90
5932;DHT22;2991;49.368;8.528;2022-09-09T05:57:57;22.20;99.90
5932;DHT22;2991;49.368;8.528;2022-09-09T06:00:22;22.20;99.90
5932;DHT22;2991;49.368;8.528;2022-09-09T06:02:52;22.20;99.90
5932;DHT22;2991;49.368;8.528;2022-09-09T06:05:18;22.30;99.90
5932;DHT22;2991;49.368;8.528;2022-09-09T06:07:44;22.20;99.90
5932;DHT22;2991;49.368;8.528;2022-09-09T06:10:10;22.20;99.90
5932;DHT22;2991;49.368;8.528;2022-09-09T06:12:39;22.20;99.90
5932;DHT22;2991;49.368;8.528;2022-09-09T06:15:04;22.00;99.90
5932;DHT22;2991;49.368;8.528;2022-09-09T06:17:30;21.90;99.90
5932;DHT22;2991;49.368;8.528;2022-09-09T06:19:56;21.90;99.90
5932;DHT22;2991;49.368;8.528;2022-09-09T06:22:21;22.00;99.90
5932;DHT22;2991;49.368;8.528;2022-09-09T06:24:47;22.00;99.90
5932;DHT22;2991;49.368;8.528;2022-09-09T06:27:12;21.90;99.90
5932;DHT22;2991;49.368;8.528;2022-09-09T06:29:39;21.90;99.90
5932;DHT22;2991;49.368;8.528;2022-09-09T06:32:04;21.80;99.90
5932;DHT22;2991;49.368;8.528;2022-09-09T06:34:30;21.80;99.90
5932;DHT22;2991;49.368;8.528;2022-09-09T06:36:56;21.80;99.90
5932;DHT22;2991;49.368;8.528;2022-09-09T06:39:23;21.80;99.90
5932;DHT22;2991;49.368;8.528;2022-09-09T06:41:48;21.80;99.90
5932;DHT22;2991;49.368;8.528;2022-09-09T06:44:15;21.90;99.90
5932;DHT22;2991;49.368;8.528;2022-09-09T06:46:40;21.90;99.90
5932;DHT22;2991;49.368;8.528;2022-09-09T06:49:08;21.90;99.90
5932;DHT22;2991;49.368;8.528;2022-09-09T06:51:35;22.00;99.90
5932;DHT22;2991;49.368;8.528;2022-09-09T06:54:02;22.00;99.90
5932;DHT22;2991;49.368;8.528;2022-09-09T06:56:32;22.00;99.90
5932;DHT22;2991;49.368;8.528;2022-09-09T06:59:00;21.90;99.90
5932;DHT22;2991;49.368;8.528;2022-09-09T07:01:31;22.00;99.90
5932;DHT22;2991;49.368;8.528;2022-09-09T07:03:58;22.10;99.90
5932;DHT22;2991;49.368;8.528;2022-09-09T07:06:32;22.20;99.90
5932;DHT22;2991;49.368;8.528;2022-09-09T07:09:00;22.30;99.90
5932;DHT22;2991;49.368;8.528;2022-09-09T07:11:28;22.40;99.90
5932;DHT22;2991;49.368;8.528;2022-09-09T07:13:56;22.60;99.90
5932;DHT22;2991;49.368;8.528;2022-09-09T07:16:22;22.80;99.90
5932;DHT22;2991;49.368;8.528;2022-09-09T07:18:50;23.00;99.90
5932;DHT22;2991;49.368;8.528;2022-09-09T07:21:16;23.10;99.90
5932;DHT22;2991;49.368;8.528;2022-09-09T07:23:43;23.30;99.90
5932;DHT22;2991;49.368;8.528;2022-09-09T07:26:13;23.30;99.90
5932;DHT22;2991;49.368;8.528;2022-09-09T07:28:40;23.40;99.90
5932;DHT22;2991;49.368;8.528;2022-09-09T07:31:15;23.50;99.90
5932;DHT22;2991;49.368;8.528;2022-09-09T07:33:44;23.50;99.90
5932;DHT22;2991;49.368;8.528;2022-09-09T07:36:16;23.60;99.90
5932;DHT22;2991;49.368;8.528;2022-09-09T07:38:44;23.50;99.90
5932;DHT22;2991;49.368;8.528;2022-09-09T07:41:14;23.60;99.90
5932;DHT22;2991;49.368;8.528;2022-09-09T07:43:45;23.60;99.90
5932;DHT22;2991;49.368;8.528;2022-09-09T07:46:12;23.60;99.90
5932;DHT22;2991;49.368;8.528;2022-09-09T07:48:38;23.60;99.90
5932;DHT22;2991;49.368;8.528;2022-09-09T07:53:33;23.60;99.90
5932;DHT22;2991;49.368;8.528;2022-09-09T07:56:05;23.50;99.90
5932;DHT22;2991;49.368;8.528;2022-09-09T07:58:31;23.50;99.90
5932;DHT22;2991;49.368;8.528;2022-09-09T08:00:57;23.30;99.90
5932;DHT22;2991;49.368;8.528;2022-09-09T08:03:25;23.30;99.90
5932;DHT22;2991;49.368;8.528;2022-09-09T08:05:51;23.20;99.90
5932;DHT22;2991;49.368;8.528;2022-09-09T08:08:16;23.30;99.90
5932;DHT22;2991;49.368;8.528;2022-09-09T08:10:42;23.20;99.90
5932;DHT22;2991;49.368;8.528;2022-09-09T08:13:08;23.30;99.90
5932;DHT22;2991;49.368;8.528;2022-09-09T08:15:34;23.40;99.90
5932;DHT22;2991;49.368;8.528;2022-09-09T08:17:59;23.60;99.90
5932;DHT22;2991;49.368;8.528;2022-09-09T08:20:25;23.60;99.90
5932;DHT22;2991;49.368;8.528;2022-09-09T08:22:54;23.50;99.90
5932;DHT22;2991;49.368;8.528;2022-09-09T08:25:20;23.20;99.90
5932;DHT22;2991;49.368;8.528;2022-09-09T08:27:45;23.20;99.90
5932;DHT22;2991;49.368;8.528;2022-09-09T08:30:14;23.20;99.90
5932;DHT22;2991;49.368;8.528;2022-09-09T08:32:39;23.10;99.90
5932;DHT22;2991;49.368;8.528;2022-09-09T08:35:05;22.70;99.90
5932;DHT22;2991;49.368;8.528;2022-09-09T08:37:31;22.50;99.90
5932;DHT22;2991;49.368;8.528;2022-09-09T08:39:57;22.60;99.90
5932;DHT22;2991;49.368;8.528;2022-09-09T08:42:35;22.70;99.90
5932;DHT22;2991;49.368;8.528;2022-09-09T08:45:33;22.60;99.90
5932;DHT22;2991;49.368;8.528;2022-09-09T08:48:30;22.70;99.90
5932;DHT22;2991;49.368;8.528;2022-09-09T08:50:58;22.50;99.90
5932;DHT22;2991;49.368;8.528;2022-09-09T08:53:42;22.60;99.90
5932;DHT22;2991;49.368;8.528;2022-09-09T08:56:16;22.80;99.90
5932;DHT22;2991;49.368;8.528;2022-09-09T08:58:49;22.80;99.90
5932;DHT22;2991;49.368;8.528;2022-09-09T09:01:17;23.00;99.90
5932;DHT22;2991;49.368;8.528;2022-09-09T09:09:21;23.40;99.90
5932;DHT22;2991;49.368;8.528;2022-09-09T09:11:51;23.50;99.90
5932;DHT22;2991;49.368;8.528;2022-09-09T09:14:24;23.60;99.90
5932;DHT22;2991;49.368;8.528;2022-09-09T09:16:57;23.70;99.90
5932;DHT22;2991;49.368;8.528;2022-09-09T09:19:24;23.80;99.90
5932;DHT22;2991;49.368;8.528;2022-09-09T09:27:21;23.90;99.90
5932;DHT22;2991;49.368;8.528;2022-09-09T09:30:14;24.00;99.90
5932;DHT22;2991;49.368;8.528;2022-09-09T09:32:53;24.10;99.90
5932;DHT22;2991;49.368;8.528;2022-09-09T09:35:19;24.10;99.90
5932;DHT22;2991;49.368;8.528;2022-09-09T09:37:48;24.10;99.90
5932;DHT22;2991;49.368;8.528;2022-09-09T09:40:18;24.10;99.90
5932;DHT22;2991;49.368;8.528;2022-09-09T09:43:01;24.20;99.90
5932;DHT22;2991;49.368;8.528;2022-09-09T09:48:18;24.20;99.90
5932;DHT22;2991;49.368;8.528;2022-09-09T09:51:08;24.20;99.90
5932;DHT22;2991;49.368;8.528;2022-09-09T09:53:37;24.10;99.90
5932;DHT22;2991;49.368;8.528;2022-09-09T09:56:06;24.10;99.90
5932;DHT22;2991;49.368;8.528;2022-09-09T10:01:37;24.00;99.90
5932;DHT22;2991;49.368;8.528;2022-09-09T10:04:24;24.00;99.90
5932;DHT22;2991;49.368;8.528;2022-09-09T10:07:43;23.60;99.90
5932;DHT22;2991;49.368;8.528;2022-09-09T10:10:55;23.50;99.90
5932;DHT22;2991;49.368;8.528;2022-09-09T10:30:22;23.90;99.90
5932;DHT22;2991;49.368;8.528;2022-09-09T10:33:21;24.00;99.90
5932;DHT22;2991;49.368;8.528;2022-09-09T10:56:41;24.20;99.90
5932;DHT22;2991;49.368;8.528;2022-09-09T10:59:37;24.00;99.90
5932;DHT22;2991;49.368;8.528;2022-09-09T11:02:30;24.10;99.90
5932;DHT22;2991;49.368;8.528;2022-09-09T11:05:08;24.20;99.90
5932;DHT22;2991;49.368;8.528;2022-09-09T11:13:14;24.40;99.90
5932;DHT22;2991;49.368;8.528;2022-09-09T11:15:48;24.40;99.90
5932;DHT22;2991;49.368;8.528;2022-09-09T11:18:20;24.50;99.90
5932;DHT22;2991;49.368;8.528;2022-09-09T11:24:32;24.50;99.90
5932;DHT22;2991;49.368;8.528;2022-09-09T11:27:05;24.50;99.90
5932;DHT22;2991;49.368;8.528;2022-09-09T11:30:02;24.60;99.90
5932;DHT22;2991;49.368;8.528;2022-09-09T11:41:07;24.50;99.90
5932;DHT22;2991;49.368;8.528;2022-09-09T11:43:45;24.40;99.90
5932;DHT22;2991;49.368;8.528;2022-09-09T11:46:13;24.60;99.90
5932;DHT22;2991;49.368;8.528;2022-09-09T11:48:59;24.40;99.90
5932;DHT22;2991;49.368;8.528;2022-09-09T11:51:27;24.40;99.90
5932;DHT22;2991;49.368;8.528;2022-09-09T11:56:26;24.30;99.90
5932;DHT22;2991;49.368;8.528;2022-09-09T11:59:05;24.30;99.90
5932;DHT22;2991;49.368;8.528;2022-09-09T12:01:38;24.30;99.90
5932;DHT22;2991;49.368;8.528;2022-09-09T12:04:13;24.50;99.90
5932;DHT22;2991;49.368;8.528;2022-09-09T12:06:45;24.70;99.90
5932;DHT22;2991;49.368;8.528;2022-09-09T12:09:38;24.60;99.90
5932;DHT22;2991;49.368;8.528;2022-09-09T12:20:34;24.20;99.90
5932;DHT22;2991;49.368;8.528;2022-09-09T12:29:02;24.70;99.90
5932;DHT22;2991;49.368;8.528;2022-09-09T12:31:41;24.80;99.90
5932;DHT22;2991;49.368;8.528;2022-09-09T12:34:17;24.80;99.90
5932;DHT22;2991;49.368;8.528;2022-09-09T12:36:47;24.80;99.90
5932;DHT22;2991;49.368;8.528;2022-09-09T12:40:01;24.80;99.90
5932;DHT22;2991;49.368;8.528;2022-09-09T12:42:19;24.80;99.90
5932;DHT22;2991;49.368;8.528;2022-09-09T12:44:59;24.80;99.90
5932;DHT22;2991;49.368;8.528;2022-09-09T12:47:47;24.90;99.90
5932;DHT22;2991;49.368;8.528;2022-09-09T12:50:20;24.90;99.90
5932;DHT22;2991;49.368;8.528;2022-09-09T12:52:47;24.90;99.90
5932;DHT22;2991;49.368;8.528;2022-09-09T12:55:21;24.90;99.90
5932;DHT22;2991;49.368;8.528;2022-09-09T12:57:50;24.90;99.90
5932;DHT22;2991;49.368;8.528;2022-09-09T13:00:19;24.90;99.90
5932;DHT22;2991;49.368;8.528;2022-09-09T13:03:00;24.90;99.90
5932;DHT22;2991;49.368;8.528;2022-09-09T13:05:28;24.90;99.90
5932;DHT22;2991;49.368;8.528;2022-09-09T13:08:03;24.80;99.90
5932;DHT22;2991;49.368;8.528;2022-09-09T13:10:33;24.80;99.90
5932;DHT22;2991;49.368;8.528;2022-09-09T13:12:59;24.80;99.90
5932;DHT22;2991;49.368;8.528;2022-09-09T13:15:28;24.80;99.90
5932;DHT22;2991;49.368;8.528;2022-09-09T13:17:56;24.80;99.90
5932;DHT22;2991;49.368;8.528;2022-09-09T13:20:23;24.70;99.90
5932;DHT22;2991;49.368;8.528;2022-09-09T13:22:50;24.70;99.90
5932;DHT22;2991;49.368;8.528;2022-09-09T13:25:27;24.70;99.90
5932;DHT22;2991;49.368;8.528;2022-09-09T13:28:00;24.70;99.90
5932;DHT22;2991;49.368;8.528;2022-09-09T13:30:32;24.60;99.90
5932;DHT22;2991;49.368;8.528;2022-09-09T13:36:09;24.60;99.90
5932;DHT22;2991;49.368;8.528;2022-09-09T13:38:37;24.60;99.90
5932;DHT22;2991;49.368;8.528;2022-09-09T13:41:05;24.60;99.90
5932;DHT22;2991;49.368;8.528;2022-09-09T13:43:43;24.60;99.90
